createdAt,value
2017-12-01T00:00:24.553Z,1001.81
2017-12-01T00:01:24.313Z,1001.83
2017-12-01T00:02:24.327Z,1001.84
2017-12-01T00:03:24.340Z,1001.85
2017-12-01T00:04:24.356Z,1001.88
2017-12-01T00:05:24.365Z,1001.88
2017-12-01T00:06:24.368Z,1001.90
2017-12-01T00:07:24.382Z,1001.88
2017-12-01T00:08:24.388Z,1001.88
2017-12-01T00:09:24.397Z,1001.91
2017-12-01T00:10:24.410Z,1001.92
2017-12-01T00:11:24.421Z,1001.93
2017-12-01T00:12:24.439Z,1001.94
2017-12-01T00:13:24.448Z,1001.95
2017-12-01T00:14:24.454Z,1001.92
2017-12-01T00:15:24.460Z,1001.95
2017-12-01T00:16:24.470Z,1001.99
2017-12-01T00:17:24.480Z,1002.01
2017-12-01T00:18:24.488Z,1002.01
2017-12-01T00:19:24.497Z,1002.00
2017-12-01T00:20:24.512Z,1001.99
2017-12-01T00:21:24.526Z,1002.04
2017-12-01T00:22:24.538Z,1002.07
2017-12-01T00:23:24.551Z,1002.05
2017-12-01T00:24:24.558Z,1002.06
2017-12-01T00:25:24.556Z,1002.06
2017-12-01T00:26:24.577Z,1002.04
2017-12-01T00:27:24.574Z,1002.03
2017-12-01T00:28:24.594Z,1002.06
2017-12-01T00:29:24.616Z,1002.03
2017-12-01T00:30:24.865Z,1002.01
2017-12-01T00:31:24.628Z,1002.03
2017-12-01T00:32:24.638Z,1002.08
2017-12-01T00:33:24.648Z,1002.10
2017-12-01T00:34:24.659Z,1002.15
2017-12-01T00:35:24.964Z,1002.14
2017-12-01T00:36:24.678Z,1002.16
2017-12-01T00:37:24.699Z,1002.14
2017-12-01T00:38:24.704Z,1002.21
2017-12-01T00:39:24.717Z,1002.18
2017-12-01T00:40:24.716Z,1002.20
2017-12-01T00:41:24.731Z,1002.22
2017-12-01T00:42:24.744Z,1002.23
2017-12-01T00:43:24.749Z,1002.22
2017-12-01T00:44:24.774Z,1002.23
2017-12-01T00:45:24.776Z,1002.27
2017-12-01T00:46:24.780Z,1002.27
2017-12-01T00:47:24.794Z,1002.29
2017-12-01T00:48:24.805Z,1002.27
2017-12-01T00:49:24.808Z,1002.31
2017-12-01T00:50:24.829Z,1002.32
2017-12-01T00:51:24.846Z,1002.30
2017-12-01T00:52:24.852Z,1002.26
2017-12-01T00:53:24.860Z,1002.29
2017-12-01T00:54:24.871Z,1002.30
2017-12-01T00:55:24.884Z,1002.26
2017-12-01T00:56:24.882Z,1002.28
2017-12-01T00:57:24.898Z,1002.27
2017-12-01T00:58:24.918Z,1002.25
2017-12-01T00:59:24.922Z,1002.30
2017-12-01T01:00:24.935Z,1002.32
2017-12-01T01:01:24.955Z,1002.31
2017-12-01T01:02:24.954Z,1002.32
2017-12-01T01:03:24.963Z,1002.38
2017-12-01T01:04:24.986Z,1002.34
2017-12-01T01:05:25.250Z,1002.40
2017-12-01T01:06:25.008Z,1002.44
2017-12-01T01:07:25.006Z,1002.46
2017-12-01T01:08:25.025Z,1002.44
2017-12-01T01:09:25.035Z,1002.46
2017-12-01T01:10:25.043Z,1002.46
2017-12-01T01:11:25.057Z,1002.48
2017-12-01T01:12:25.070Z,1002.48
2017-12-01T01:13:25.085Z,1002.51
2017-12-01T01:14:25.084Z,1002.52
2017-12-01T01:15:25.090Z,1002.56
2017-12-01T01:16:25.108Z,1002.60
2017-12-01T01:17:25.111Z,1002.60
2017-12-01T01:18:25.143Z,1002.59
2017-12-01T01:19:25.142Z,1002.60
2017-12-01T01:20:25.146Z,1002.63
2017-12-01T01:21:25.154Z,1002.64
2017-12-01T01:22:25.167Z,1002.63
2017-12-01T01:23:25.178Z,1002.66
2017-12-01T01:24:25.186Z,1002.62
2017-12-01T01:25:25.197Z,1002.69
2017-12-01T01:26:25.218Z,1002.68
2017-12-01T01:27:25.227Z,1002.69
2017-12-01T01:28:25.237Z,1002.74
2017-12-01T01:29:25.244Z,1002.75
2017-12-01T01:30:25.266Z,1002.72
2017-12-01T01:31:25.263Z,1002.72
2017-12-01T01:32:25.269Z,1002.74
2017-12-01T01:33:25.297Z,1002.77
2017-12-01T01:34:25.302Z,1002.74
2017-12-01T01:35:25.313Z,1002.76
2017-12-01T01:36:25.316Z,1002.77
2017-12-01T01:37:25.329Z,1002.80
2017-12-01T01:38:25.361Z,1002.84
2017-12-01T01:39:25.352Z,1002.81
2017-12-01T01:40:25.370Z,1002.84
2017-12-01T01:41:25.377Z,1002.81
2017-12-01T01:42:25.390Z,1002.76
2017-12-01T01:43:25.388Z,1002.79
2017-12-01T01:44:25.410Z,1002.78
2017-12-01T01:45:25.412Z,1002.77
2017-12-01T01:46:25.434Z,1002.78
2017-12-01T01:47:25.446Z,1002.80
2017-12-01T01:48:25.452Z,1002.79
2017-12-01T01:49:25.454Z,1002.83
2017-12-01T01:50:25.475Z,1002.86
2017-12-01T01:51:25.477Z,1002.85
2017-12-01T01:52:25.492Z,1002.91
2017-12-01T01:53:25.512Z,1002.93
2017-12-01T01:54:25.516Z,1002.88
2017-12-01T01:55:25.529Z,1002.86
2017-12-01T01:56:25.535Z,1002.88
2017-12-01T01:57:25.546Z,1002.88
2017-12-01T01:58:25.563Z,1002.94
2017-12-01T01:59:25.569Z,1002.95
2017-12-01T02:00:25.582Z,1002.94
2017-12-01T02:01:25.595Z,1002.96
2017-12-01T02:02:25.594Z,1002.96
2017-12-01T02:03:25.614Z,1003.00
2017-12-01T02:04:25.631Z,1002.99
2017-12-01T02:05:25.640Z,1002.98
2017-12-01T02:06:25.646Z,1002.98
2017-12-01T02:07:25.651Z,1003.01
2017-12-01T02:08:25.665Z,1003.01
2017-12-01T02:09:25.680Z,1002.98
2017-12-01T02:10:25.697Z,1002.99
2017-12-01T02:11:25.711Z,1003.01
2017-12-01T02:12:25.708Z,1003.00
2017-12-01T02:13:25.716Z,1003.04
2017-12-01T02:14:25.737Z,1003.05
2017-12-01T02:15:26.054Z,1003.01
2017-12-01T02:16:25.766Z,1003.04
2017-12-01T02:17:25.776Z,1003.05
2017-12-01T02:18:25.781Z,1003.04
2017-12-01T02:19:25.787Z,1003.04
2017-12-01T02:20:25.793Z,1003.02
2017-12-01T02:21:25.819Z,1003.07
2017-12-01T02:22:25.832Z,1003.06
2017-12-01T02:23:25.878Z,1003.05
2017-12-01T02:24:25.851Z,1003.07
2017-12-01T02:25:25.860Z,1003.09
2017-12-01T02:26:25.888Z,1003.10
2017-12-01T02:27:25.889Z,1003.13
2017-12-01T02:28:25.895Z,1003.16
2017-12-01T02:29:25.922Z,1003.19
2017-12-01T02:30:25.922Z,1003.21
2017-12-01T02:31:25.945Z,1003.16
2017-12-01T02:32:25.941Z,1003.23
2017-12-01T02:33:25.948Z,1003.21
2017-12-01T02:34:25.954Z,1003.19
2017-12-01T02:35:25.979Z,1003.21
2017-12-01T02:36:25.997Z,1003.28
2017-12-01T02:37:26.000Z,1003.26
2017-12-01T02:38:26.012Z,1003.23
2017-12-01T02:39:26.017Z,1003.21
2017-12-01T02:40:26.343Z,1003.20
2017-12-01T02:41:26.050Z,1003.23
2017-12-01T02:42:26.056Z,1003.20
2017-12-01T02:43:26.069Z,1003.23
2017-12-01T02:44:26.068Z,1003.20
2017-12-01T02:45:26.076Z,1003.22
2017-12-01T02:46:26.107Z,1003.26
2017-12-01T02:47:26.108Z,1003.27
2017-12-01T02:48:26.125Z,1003.20
2017-12-01T02:49:26.134Z,1003.29
2017-12-01T02:50:26.134Z,1003.29
2017-12-01T02:51:26.159Z,1003.25
2017-12-01T02:52:26.165Z,1003.29
2017-12-01T02:53:26.179Z,1003.27
2017-12-01T02:54:26.192Z,1003.30
2017-12-01T02:55:26.190Z,1003.27
2017-12-01T02:56:26.219Z,1003.23
2017-12-01T02:57:26.225Z,1003.26
2017-12-01T02:58:26.229Z,1003.24
2017-12-01T02:59:26.249Z,1003.23
2017-12-01T03:00:26.560Z,1003.20
2017-12-01T03:01:26.274Z,1003.25
2017-12-01T03:02:26.281Z,1003.25
2017-12-01T03:03:26.285Z,1003.29
2017-12-01T03:04:26.306Z,1003.30
2017-12-01T03:05:26.316Z,1003.30
2017-12-01T03:06:26.331Z,1003.33
2017-12-01T03:07:26.344Z,1003.31
2017-12-01T03:08:26.350Z,1003.29
2017-12-01T03:09:26.352Z,1003.35
2017-12-01T03:10:26.624Z,1003.36
2017-12-01T03:11:26.389Z,1003.34
2017-12-01T03:12:26.401Z,1003.36
2017-12-01T03:13:26.412Z,1003.35
2017-12-01T03:14:26.409Z,1003.36
2017-12-01T03:15:26.435Z,1003.36
2017-12-01T03:16:26.439Z,1003.37
2017-12-01T03:17:26.461Z,1003.34
2017-12-01T03:18:26.462Z,1003.38
2017-12-01T03:19:26.466Z,1003.39
2017-12-01T03:20:26.792Z,1003.39
2017-12-01T03:21:26.508Z,1003.43
2017-12-01T03:22:26.505Z,1003.41
2017-12-01T03:23:26.525Z,1003.47
2017-12-01T03:24:26.525Z,1003.48
2017-12-01T03:25:26.802Z,1003.43
2017-12-01T03:26:26.557Z,1003.47
2017-12-01T03:27:26.568Z,1003.50
2017-12-01T03:28:26.581Z,1003.52
2017-12-01T03:29:26.602Z,1003.53
2017-12-01T03:30:26.602Z,1003.56
2017-12-01T03:31:26.621Z,1003.53
2017-12-01T03:32:26.619Z,1003.54
2017-12-01T03:33:26.629Z,1003.57
2017-12-01T03:34:26.655Z,1003.55
2017-12-01T03:35:26.666Z,1003.51
2017-12-01T03:36:26.671Z,1003.55
2017-12-01T03:37:26.680Z,1003.54
2017-12-01T03:38:26.686Z,1003.56
2017-12-01T03:39:26.710Z,1003.54
2017-12-01T03:40:27.016Z,1003.56
2017-12-01T03:41:26.732Z,1003.57
2017-12-01T03:42:26.743Z,1003.59
2017-12-01T03:43:26.744Z,1003.59
2017-12-01T03:44:26.773Z,1003.61
2017-12-01T03:45:26.782Z,1003.58
2017-12-01T03:46:26.788Z,1003.60
2017-12-01T03:47:26.796Z,1003.60
2017-12-01T03:48:26.817Z,1003.62
2017-12-01T03:49:26.830Z,1003.63
2017-12-01T03:50:26.836Z,1003.63
2017-12-01T03:51:26.858Z,1003.67
2017-12-01T03:52:26.856Z,1003.69
2017-12-01T03:53:26.875Z,1003.70
2017-12-01T03:54:26.882Z,1003.70
2017-12-01T03:55:26.891Z,1003.71
2017-12-01T03:56:26.918Z,1003.71
2017-12-01T03:57:26.916Z,1003.72
2017-12-01T03:58:26.932Z,1003.75
2017-12-01T03:59:26.941Z,1003.76
2017-12-01T04:00:26.945Z,1003.73
2017-12-01T04:01:26.970Z,1003.71
2017-12-01T04:02:26.983Z,1003.75
2017-12-01T04:03:26.996Z,1003.77
2017-12-01T04:04:26.996Z,1003.77
2017-12-01T04:05:27.004Z,1003.74
2017-12-01T04:06:27.015Z,1003.75
2017-12-01T04:07:27.040Z,1003.77
2017-12-01T04:08:27.040Z,1003.78
2017-12-01T04:09:27.048Z,1003.81
2017-12-01T04:10:27.068Z,1003.83
2017-12-01T04:11:27.073Z,1003.85
2017-12-01T04:12:27.091Z,1003.84
2017-12-01T04:13:27.107Z,1003.85
2017-12-01T04:14:27.104Z,1003.86
2017-12-01T04:15:27.118Z,1003.86
2017-12-01T04:16:27.141Z,1003.83
2017-12-01T04:17:27.144Z,1003.84
2017-12-01T04:18:27.163Z,1003.85
2017-12-01T04:19:27.161Z,1003.87
2017-12-01T04:20:27.481Z,1003.83
2017-12-01T04:21:27.207Z,1003.82
2017-12-01T04:22:27.207Z,1003.82
2017-12-01T04:23:27.214Z,1003.86
2017-12-01T04:24:27.218Z,1003.89
2017-12-01T04:25:27.241Z,1003.85
2017-12-01T04:26:27.260Z,1003.90
2017-12-01T04:27:27.265Z,1003.89
2017-12-01T04:28:27.277Z,1003.89
2017-12-01T04:29:27.280Z,1003.94
2017-12-01T04:30:27.297Z,1003.95
2017-12-01T04:31:27.311Z,1003.96
2017-12-01T04:32:27.322Z,1003.95
2017-12-01T04:33:27.324Z,1003.97
2017-12-01T04:34:27.337Z,1003.99
2017-12-01T04:35:27.354Z,1003.96
2017-12-01T04:36:27.374Z,1004.04
2017-12-01T04:37:27.377Z,1004.09
2017-12-01T04:38:27.387Z,1004.09
2017-12-01T04:39:27.406Z,1004.04
2017-12-01T04:40:27.411Z,1004.05
2017-12-01T04:41:27.429Z,1004.07
2017-12-01T04:42:27.439Z,1004.09
2017-12-01T04:43:27.445Z,1004.10
2017-12-01T04:44:27.463Z,1004.15
2017-12-01T04:45:27.473Z,1004.15
2017-12-01T04:46:27.482Z,1004.18
2017-12-01T04:47:27.489Z,1004.18
2017-12-01T04:48:27.494Z,1004.19
2017-12-01T04:49:27.523Z,1004.25
2017-12-01T04:50:27.836Z,1004.26
2017-12-01T04:51:27.541Z,1004.26
2017-12-01T04:52:27.546Z,1004.26
2017-12-01T04:53:27.575Z,1004.26
2017-12-01T04:54:27.574Z,1004.27
2017-12-01T04:55:27.592Z,1004.32
2017-12-01T04:56:27.591Z,1004.36
2017-12-01T04:57:27.601Z,1004.40
2017-12-01T04:58:27.632Z,1004.33
2017-12-01T04:59:27.637Z,1004.36
2017-12-01T05:00:27.658Z,1004.37
2017-12-01T05:01:27.658Z,1004.39
2017-12-01T05:02:27.675Z,1004.38
2017-12-01T05:03:27.688Z,1004.43
2017-12-01T05:04:27.693Z,1004.43
2017-12-01T05:05:27.695Z,1004.42
2017-12-01T05:06:27.727Z,1004.44
2017-12-01T05:07:27.726Z,1004.46
2017-12-01T05:08:27.757Z,1004.43
2017-12-01T05:09:27.749Z,1004.45
2017-12-01T05:10:27.754Z,1004.49
2017-12-01T05:11:27.784Z,1004.48
2017-12-01T05:12:27.788Z,1004.49
2017-12-01T05:13:27.804Z,1004.49
2017-12-01T05:14:27.806Z,1004.51
2017-12-01T05:15:27.828Z,1004.51
2017-12-01T05:16:27.835Z,1004.55
2017-12-01T05:17:27.850Z,1004.57
2017-12-01T05:18:27.856Z,1004.57
2017-12-01T05:19:27.865Z,1004.59
2017-12-01T05:20:28.185Z,1004.63
2017-12-01T05:21:27.896Z,1004.64
2017-12-01T05:22:27.908Z,1004.66
2017-12-01T05:23:27.906Z,1004.63
2017-12-01T05:24:27.920Z,1004.65
2017-12-01T05:25:27.940Z,1004.66
2017-12-01T05:26:27.952Z,1004.70
2017-12-01T05:27:27.965Z,1004.72
2017-12-01T05:28:27.968Z,1004.73
2017-12-01T05:29:27.987Z,1004.72
2017-12-01T05:30:28.248Z,1004.77
2017-12-01T05:31:28.014Z,1004.77
2017-12-01T05:32:28.015Z,1004.75
2017-12-01T05:33:28.025Z,1004.76
2017-12-01T05:34:28.041Z,1004.77
2017-12-01T05:35:28.362Z,1004.79
2017-12-01T05:36:28.064Z,1004.81
2017-12-01T05:37:28.075Z,1004.82
2017-12-01T05:38:28.093Z,1004.84
2017-12-01T05:39:28.098Z,1004.86
2017-12-01T05:40:28.124Z,1004.85
2017-12-01T05:41:28.120Z,1004.81
2017-12-01T05:42:28.131Z,1004.84
2017-12-01T05:43:28.164Z,1004.83
2017-12-01T05:44:28.161Z,1004.80
2017-12-01T05:45:28.166Z,1004.85
2017-12-01T05:46:28.178Z,1004.81
2017-12-01T05:47:28.201Z,1004.86
2017-12-01T05:48:28.210Z,1004.83
2017-12-01T05:49:28.223Z,1004.84
2017-12-01T05:50:28.226Z,1004.83
2017-12-01T05:51:28.234Z,1004.84
2017-12-01T05:52:28.252Z,1004.87
2017-12-01T05:53:28.260Z,1004.93
2017-12-01T05:54:28.273Z,1004.96
2017-12-01T05:55:28.283Z,1004.96
2017-12-01T05:56:28.295Z,1004.98
2017-12-01T05:57:28.315Z,1005.02
2017-12-01T05:58:28.321Z,1005.01
2017-12-01T05:59:28.325Z,1005.06
2017-12-01T06:00:28.340Z,1005.06
2017-12-01T06:01:28.366Z,1005.07
2017-12-01T06:02:28.365Z,1005.09
2017-12-01T06:03:28.379Z,1005.14
2017-12-01T06:04:28.386Z,1005.15
2017-12-01T06:05:28.649Z,1005.16
2017-12-01T06:06:28.418Z,1005.20
2017-12-01T06:07:28.421Z,1005.20
2017-12-01T06:08:28.444Z,1005.23
2017-12-01T06:09:28.447Z,1005.23
2017-12-01T06:10:28.456Z,1005.24
2017-12-01T06:11:28.480Z,1005.25
2017-12-01T06:12:28.497Z,1005.25
2017-12-01T06:13:28.489Z,1005.23
2017-12-01T06:14:28.508Z,1005.25
2017-12-01T06:15:28.506Z,1005.25
2017-12-01T06:16:28.538Z,1005.24
2017-12-01T06:17:28.546Z,1005.24
2017-12-01T06:18:28.545Z,1005.25
2017-12-01T06:19:28.565Z,1005.26
2017-12-01T06:20:28.814Z,1005.27
2017-12-01T06:21:28.584Z,1005.22
2017-12-01T06:22:28.598Z,1005.27
2017-12-01T06:23:28.608Z,1005.26
2017-12-01T06:24:28.620Z,1005.34
2017-12-01T06:25:28.631Z,1005.34
2017-12-01T06:26:28.647Z,1005.33
2017-12-01T06:27:28.654Z,1005.43
2017-12-01T06:28:28.665Z,1005.42
2017-12-01T06:29:28.688Z,1005.38
2017-12-01T06:30:28.682Z,1005.43
2017-12-01T06:31:28.699Z,1005.46
2017-12-01T06:32:28.711Z,1005.40
2017-12-01T06:33:28.720Z,1005.49
2017-12-01T06:34:28.743Z,1005.50
2017-12-01T06:35:28.736Z,1005.52
2017-12-01T06:36:28.756Z,1005.49
2017-12-01T06:37:28.769Z,1005.49
2017-12-01T06:38:28.778Z,1005.49
2017-12-01T06:39:28.788Z,1005.46
2017-12-01T06:40:29.100Z,1005.48
2017-12-01T06:41:28.803Z,1005.46
2017-12-01T06:42:28.820Z,1005.51
2017-12-01T06:43:28.839Z,1005.49
2017-12-01T06:44:28.845Z,1005.49
2017-12-01T06:45:28.848Z,1005.48
2017-12-01T06:46:28.862Z,1005.53
2017-12-01T06:47:28.883Z,1005.49
2017-12-01T06:48:28.897Z,1005.50
2017-12-01T06:49:28.915Z,1005.53
2017-12-01T06:50:28.910Z,1005.55
2017-12-01T06:51:28.925Z,1005.60
2017-12-01T06:52:28.937Z,1005.61
2017-12-01T06:53:28.950Z,1005.62
2017-12-01T06:54:28.957Z,1005.64
2017-12-01T06:55:28.967Z,1005.61
2017-12-01T06:56:28.988Z,1005.64
2017-12-01T06:57:28.990Z,1005.67
2017-12-01T06:58:29.008Z,1005.64
2017-12-01T06:59:29.013Z,1005.63
2017-12-01T07:00:29.018Z,1005.62
2017-12-01T07:01:29.067Z,1005.60
2017-12-01T07:02:29.041Z,1005.66
2017-12-01T07:03:29.058Z,1005.63
2017-12-01T07:04:29.076Z,1005.69
2017-12-01T07:05:29.085Z,1005.71
2017-12-01T07:06:29.084Z,1005.74
2017-12-01T07:07:29.098Z,1005.74
2017-12-01T07:08:29.110Z,1005.75
2017-12-01T07:09:29.128Z,1005.77
2017-12-01T07:10:29.140Z,1005.78
2017-12-01T07:11:29.140Z,1005.81
2017-12-01T07:12:29.155Z,1005.82
2017-12-01T07:13:29.164Z,1005.85
2017-12-01T07:14:29.187Z,1005.89
2017-12-01T07:15:29.193Z,1005.90
2017-12-01T07:16:29.204Z,1005.91
2017-12-01T07:17:29.207Z,1005.98
2017-12-01T07:18:29.221Z,1005.94
2017-12-01T07:19:29.229Z,1005.95
2017-12-01T07:20:29.256Z,1005.96
2017-12-01T07:21:29.266Z,1005.97
2017-12-01T07:22:29.270Z,1005.98
2017-12-01T07:23:29.284Z,1005.97
2017-12-01T07:24:29.288Z,1005.97
2017-12-01T07:25:29.298Z,1005.97
2017-12-01T07:26:29.323Z,1006.00
2017-12-01T07:27:29.324Z,1005.97
2017-12-01T07:28:29.334Z,1005.97
2017-12-01T07:29:29.346Z,1005.98
2017-12-01T07:30:29.354Z,1006.05
2017-12-01T07:31:29.379Z,1006.02
2017-12-01T07:32:29.378Z,1006.06
2017-12-01T07:33:29.392Z,1006.09
2017-12-01T07:34:29.406Z,1006.09
2017-12-01T07:35:29.404Z,1006.09
2017-12-01T07:36:29.437Z,1006.16
2017-12-01T07:37:29.446Z,1006.15
2017-12-01T07:38:29.445Z,1006.19
2017-12-01T07:39:29.463Z,1006.23
2017-12-01T07:40:29.461Z,1006.20
2017-12-01T07:41:29.489Z,1006.23
2017-12-01T07:42:29.502Z,1006.25
2017-12-01T07:43:29.501Z,1006.23
2017-12-01T07:44:29.520Z,1006.27
2017-12-01T07:45:29.528Z,1006.25
2017-12-01T07:46:29.544Z,1006.25
2017-12-01T07:47:29.558Z,1006.27
2017-12-01T07:48:29.562Z,1006.27
2017-12-01T07:49:29.574Z,1006.27
2017-12-01T07:50:29.584Z,1006.30
2017-12-01T07:51:29.624Z,1006.29
2017-12-01T07:52:29.612Z,1006.26
2017-12-01T07:53:29.618Z,1006.30
2017-12-01T07:54:29.624Z,1006.33
2017-12-01T07:55:29.635Z,1006.37
2017-12-01T07:56:29.654Z,1006.39
2017-12-01T07:57:29.662Z,1006.38
2017-12-01T07:58:29.675Z,1006.43
2017-12-01T07:59:29.680Z,1006.44
2017-12-01T08:00:29.694Z,1006.48
2017-12-01T08:01:29.720Z,1006.52
2017-12-01T08:02:29.718Z,1006.52
2017-12-01T08:03:29.734Z,1006.53
2017-12-01T08:04:29.742Z,1006.56
2017-12-01T08:05:29.764Z,1006.61
2017-12-01T08:06:29.773Z,1006.67
2017-12-01T08:07:29.786Z,1006.65
2017-12-01T08:08:29.804Z,1006.65
2017-12-01T08:09:29.808Z,1006.64
2017-12-01T08:10:29.819Z,1006.69
2017-12-01T08:11:29.829Z,1006.71
2017-12-01T08:12:29.844Z,1006.76
2017-12-01T08:13:29.865Z,1006.73
2017-12-01T08:14:29.870Z,1006.79
2017-12-01T08:15:29.876Z,1006.84
2017-12-01T08:16:29.893Z,1006.83
2017-12-01T08:17:29.908Z,1006.89
2017-12-01T08:18:29.915Z,1006.87
2017-12-01T08:19:29.926Z,1006.88
2017-12-01T08:20:30.191Z,1006.88
2017-12-01T08:21:29.968Z,1006.92
2017-12-01T08:22:29.960Z,1006.91
2017-12-01T08:23:29.982Z,1006.92
2017-12-01T08:24:29.989Z,1006.99
2017-12-01T08:25:29.998Z,1007.01
2017-12-01T08:26:30.018Z,1007.03
2017-12-01T08:27:30.035Z,1007.03
2017-12-01T08:28:30.043Z,1007.06
2017-12-01T08:29:30.057Z,1007.05
2017-12-01T08:30:30.078Z,1007.10
2017-12-01T08:31:30.092Z,1007.13
2017-12-01T08:32:30.091Z,1007.20
2017-12-01T08:33:30.101Z,1007.13
2017-12-01T08:34:30.127Z,1007.22
2017-12-01T08:35:30.132Z,1007.17
2017-12-01T08:36:30.137Z,1007.20
2017-12-01T08:37:30.160Z,1007.19
2017-12-01T08:38:30.164Z,1007.26
2017-12-01T08:39:30.177Z,1007.27
2017-12-01T08:40:30.452Z,1007.27
2017-12-01T08:41:30.209Z,1007.26
2017-12-01T08:42:30.224Z,1007.26
2017-12-01T08:43:30.234Z,1007.28
2017-12-01T08:44:30.246Z,1007.31
2017-12-01T08:45:30.297Z,1007.31
2017-12-01T08:46:30.272Z,1007.28
2017-12-01T08:47:30.293Z,1007.30
2017-12-01T08:48:30.290Z,1007.31
2017-12-01T08:49:30.312Z,1007.37
2017-12-01T08:50:30.332Z,1007.37
2017-12-01T08:51:30.394Z,1007.35
2017-12-01T08:52:30.368Z,1007.33
2017-12-01T08:53:30.370Z,1007.36
2017-12-01T08:54:30.388Z,1007.38
2017-12-01T08:55:30.401Z,1007.37
2017-12-01T08:56:30.399Z,1007.39
2017-12-01T08:57:30.427Z,1007.46
2017-12-01T08:58:30.440Z,1007.46
2017-12-01T08:59:30.449Z,1007.47
2017-12-01T09:00:30.720Z,1007.52
2017-12-01T09:01:30.480Z,1007.48
2017-12-01T09:02:30.477Z,1007.48
2017-12-01T09:03:30.509Z,1007.52
2017-12-01T09:04:30.519Z,1007.54
2017-12-01T09:05:30.522Z,1007.53
2017-12-01T09:06:30.552Z,1007.53
2017-12-01T09:07:30.546Z,1007.56
2017-12-01T09:08:30.568Z,1007.56
2017-12-01T09:09:30.581Z,1007.57
2017-12-01T09:10:30.585Z,1007.63
2017-12-01T09:11:30.618Z,1007.66
2017-12-01T09:12:30.623Z,1007.66
2017-12-01T09:13:30.648Z,1007.68
2017-12-01T09:14:30.660Z,1007.68
2017-12-01T09:15:30.656Z,1007.69
2017-12-01T09:16:30.670Z,1007.73
2017-12-01T09:17:30.690Z,1007.75
2017-12-01T09:18:30.702Z,1007.79
2017-12-01T09:19:30.723Z,1007.80
2017-12-01T09:20:30.725Z,1007.80
2017-12-01T09:21:30.734Z,1007.83
2017-12-01T09:22:30.766Z,1007.85
2017-12-01T09:23:30.772Z,1007.84
2017-12-01T09:24:30.805Z,1007.81
2017-12-01T09:25:30.806Z,1007.80
2017-12-01T09:26:30.803Z,1007.81
2017-12-01T09:27:30.829Z,1007.86
2017-12-01T09:28:30.840Z,1007.83
2017-12-01T09:29:30.860Z,1007.85
2017-12-01T09:30:30.875Z,1007.87
2017-12-01T09:31:30.894Z,1007.83
2017-12-01T09:32:30.899Z,1007.88
2017-12-01T09:33:30.913Z,1007.87
2017-12-01T09:34:30.931Z,1007.87
2017-12-01T09:35:30.939Z,1007.87
2017-12-01T09:36:30.961Z,1007.90
2017-12-01T09:37:30.969Z,1007.91
2017-12-01T09:38:30.978Z,1007.90
2017-12-01T09:39:30.996Z,1007.89
2017-12-01T09:40:31.013Z,1007.89
2017-12-01T09:41:31.035Z,1007.92
2017-12-01T09:42:31.039Z,1007.94
2017-12-01T09:43:31.064Z,1007.89
2017-12-01T09:44:31.069Z,1007.93
2017-12-01T09:45:31.078Z,1007.96
2017-12-01T09:46:31.098Z,1007.95
2017-12-01T09:47:31.101Z,1007.96
2017-12-01T09:48:31.134Z,1008.02
2017-12-01T09:49:31.144Z,1007.99
2017-12-01T09:50:31.156Z,1007.99
2017-12-01T09:51:31.169Z,1007.94
2017-12-01T09:52:31.172Z,1008.00
2017-12-01T09:53:31.199Z,1007.94
2017-12-01T09:54:31.213Z,1007.97
2017-12-01T09:55:31.230Z,1007.93
2017-12-01T09:56:31.243Z,1008.00
2017-12-01T09:57:31.257Z,1007.98
2017-12-01T09:58:31.262Z,1007.98
2017-12-01T09:59:31.283Z,1008.00
2017-12-01T10:00:31.551Z,1008.00
2017-12-01T10:01:31.308Z,1008.02
2017-12-01T10:02:31.333Z,1008.02
2017-12-01T10:03:31.333Z,1008.02
2017-12-01T10:04:31.358Z,1008.03
2017-12-01T10:05:31.372Z,1008.02
2017-12-01T10:06:31.385Z,1007.99
2017-12-01T10:07:31.397Z,1007.97
2017-12-01T10:08:31.402Z,1007.96
2017-12-01T10:09:31.429Z,1007.97
2017-12-01T10:10:31.436Z,1008.02
2017-12-01T10:11:31.464Z,1008.02
2017-12-01T10:12:31.463Z,1008.02
2017-12-01T10:13:31.496Z,1007.97
2017-12-01T10:14:31.503Z,1007.98
2017-12-01T10:15:31.502Z,1008.00
2017-12-01T10:16:31.578Z,1008.05
2017-12-01T10:17:31.543Z,1008.05
2017-12-01T10:18:31.560Z,1008.05
2017-12-01T10:19:31.573Z,1008.05
2017-12-01T10:20:31.584Z,1008.03
2017-12-01T10:21:31.599Z,1008.06
2017-12-01T10:22:31.612Z,1008.05
2017-12-01T10:23:31.622Z,1008.03
2017-12-01T10:24:31.643Z,1008.06
2017-12-01T10:25:31.664Z,1008.02
2017-12-01T10:26:31.662Z,1008.07
2017-12-01T10:27:31.694Z,1008.08
2017-12-01T10:28:31.692Z,1008.09
2017-12-01T10:29:31.702Z,1008.05
2017-12-01T10:30:31.726Z,1008.07
2017-12-01T10:31:31.749Z,1008.05
2017-12-01T10:32:31.756Z,1008.03
2017-12-01T10:33:31.771Z,1008.05
2017-12-01T10:34:31.777Z,1008.07
2017-12-01T10:35:31.802Z,1008.05
2017-12-01T10:36:31.807Z,1008.05
2017-12-01T10:37:31.822Z,1008.04
2017-12-01T10:38:31.835Z,1008.03
2017-12-01T10:39:31.841Z,1008.06
2017-12-01T10:40:31.885Z,1008.10
2017-12-01T10:41:31.881Z,1008.10
2017-12-01T10:42:31.892Z,1008.12
2017-12-01T10:43:31.905Z,1008.11
2017-12-01T10:44:31.915Z,1008.09
2017-12-01T10:45:31.931Z,1008.11
2017-12-01T10:46:31.950Z,1008.11
2017-12-01T10:47:31.961Z,1008.11
2017-12-01T10:48:31.981Z,1008.10
2017-12-01T10:49:31.996Z,1008.12
2017-12-01T10:50:32.001Z,1008.12
2017-12-01T10:51:32.021Z,1008.15
2017-12-01T10:52:32.030Z,1008.09
2017-12-01T10:53:32.039Z,1008.08
2017-12-01T10:54:32.063Z,1008.09
2017-12-01T10:55:32.080Z,1008.08
2017-12-01T10:56:32.084Z,1008.07
2017-12-01T10:57:32.105Z,1008.13
2017-12-01T10:58:32.109Z,1008.14
2017-12-01T10:59:32.129Z,1008.19
2017-12-01T11:00:32.145Z,1008.20
2017-12-01T11:01:32.147Z,1008.19
2017-12-01T11:02:32.180Z,1008.23
2017-12-01T11:03:32.177Z,1008.29
2017-12-01T11:04:32.195Z,1008.31
2017-12-01T11:05:32.220Z,1008.28
2017-12-01T11:06:32.218Z,1008.28
2017-12-01T11:07:32.262Z,1008.29
2017-12-01T11:08:32.248Z,1008.33
2017-12-01T11:09:32.272Z,1008.36
2017-12-01T11:10:32.282Z,1008.34
2017-12-01T11:11:32.295Z,1008.36
2017-12-01T11:12:32.313Z,1008.36
2017-12-01T11:13:32.328Z,1008.44
2017-12-01T11:14:32.338Z,1008.39
2017-12-01T11:15:32.351Z,1008.37
2017-12-01T11:16:32.367Z,1008.41
2017-12-01T11:17:32.378Z,1008.42
2017-12-01T11:18:32.391Z,1008.36
2017-12-01T11:19:32.414Z,1008.38
2017-12-01T11:20:32.427Z,1008.34
2017-12-01T11:21:32.449Z,1008.33
2017-12-01T11:22:32.453Z,1008.40
2017-12-01T11:23:32.479Z,1008.41
2017-12-01T11:24:32.484Z,1008.46
2017-12-01T11:25:32.504Z,1008.45
2017-12-01T11:26:32.512Z,1008.50
2017-12-01T11:27:32.523Z,1008.46
2017-12-01T11:28:32.548Z,1008.48
2017-12-01T11:29:32.552Z,1008.53
2017-12-01T11:30:32.576Z,1008.52
2017-12-01T11:31:32.588Z,1008.52
2017-12-01T11:32:32.587Z,1008.48
2017-12-01T11:33:32.614Z,1008.50
2017-12-01T11:34:32.638Z,1008.58
2017-12-01T11:35:32.638Z,1008.58
2017-12-01T11:36:32.656Z,1008.62
2017-12-01T11:37:32.672Z,1008.64
2017-12-01T11:38:32.684Z,1008.65
2017-12-01T11:39:32.709Z,1008.65
2017-12-01T11:40:32.714Z,1008.69
2017-12-01T11:41:32.737Z,1008.67
2017-12-01T11:42:32.747Z,1008.65
2017-12-01T11:43:32.765Z,1008.65
2017-12-01T11:44:32.773Z,1008.62
2017-12-01T11:45:32.782Z,1008.68
2017-12-01T11:46:32.797Z,1008.67
2017-12-01T11:47:32.820Z,1008.66
2017-12-01T11:48:32.834Z,1008.68
2017-12-01T11:49:32.843Z,1008.65
2017-12-01T11:50:32.863Z,1008.70
2017-12-01T11:51:32.886Z,1008.67
2017-12-01T11:52:32.894Z,1008.67
2017-12-01T11:53:32.908Z,1008.69
2017-12-01T11:54:32.919Z,1008.69
2017-12-01T11:55:32.938Z,1008.67
2017-12-01T11:56:32.951Z,1008.70
2017-12-01T11:57:32.971Z,1008.70
2017-12-01T11:58:32.988Z,1008.73
2017-12-01T11:59:32.994Z,1008.73
2017-12-01T12:00:33.271Z,1008.73
2017-12-01T12:01:33.022Z,1008.75
2017-12-01T12:02:33.046Z,1008.72
2017-12-01T12:03:33.059Z,1008.72
2017-12-01T12:04:33.059Z,1008.70
2017-12-01T12:05:33.085Z,1008.71